sensor_id;sensor_type;location;lat;lon;timestamp;P1;durP1;ratioP1;P2;durP2;ratioP2
50739;SDS011;36704;52.524;17.580;2022-09-12T00:01:53;8.00;;;3.95;;
50739;SDS011;36704;52.524;17.580;2022-09-12T00:04:39;5.75;;;3.33;;
50739;SDS011;36704;52.524;17.580;2022-09-12T00:07:25;7.63;;;3.72;;
50739;SDS011;36704;52.524;17.580;2022-09-12T00:10:12;4.82;;;3.50;;
50739;SDS011;36704;52.524;17.580;2022-09-12T00:12:57;8.32;;;3.55;;
50739;SDS011;36704;52.524;17.580;2022-09-12T00:15:43;6.60;;;3.30;;
50739;SDS011;36704;52.524;17.580;2022-09-12T00:18:30;7.07;;;3.85;;
50739;SDS011;36704;52.524;17.580;2022-09-12T00:21:16;11.02;;;4.28;;
50739;SDS011;36704;52.524;17.580;2022-09-12T00:24:03;6.38;;;3.63;;
50739;SDS011;36704;52.524;17.580;2022-09-12T00:26:49;5.45;;;3.33;;
50739;SDS011;36704;52.524;17.580;2022-09-12T00:29:36;5.43;;;3.80;;
50739;SDS011;36704;52.524;17.580;2022-09-12T00:32:22;7.43;;;3.65;;
50739;SDS011;36704;52.524;17.580;2022-09-12T00:35:08;7.93;;;3.70;;
50739;SDS011;36704;52.524;17.580;2022-09-12T00:37:54;6.07;;;3.20;;
50739;SDS011;36704;52.524;17.580;2022-09-12T00:40:40;7.65;;;3.80;;
50739;SDS011;36704;52.524;17.580;2022-09-12T00:43:34;9.27;;;4.07;;
50739;SDS011;36704;52.524;17.580;2022-09-12T00:52:15;9.73;;;4.03;;
50739;SDS011;36704;52.524;17.580;2022-09-12T00:55:28;5.30;;;3.67;;
50739;SDS011;36704;52.524;17.580;2022-09-12T00:58:29;7.22;;;3.92;;
50739;SDS011;36704;52.524;17.580;2022-09-12T01:01:20;4.93;;;3.88;;
50739;SDS011;36704;52.524;17.580;2022-09-12T01:04:06;4.97;;;4.25;;
50739;SDS011;36704;52.524;17.580;2022-09-12T01:06:54;7.45;;;4.38;;
50739;SDS011;36704;52.524;17.580;2022-09-12T01:09:42;6.15;;;4.05;;
50739;SDS011;36704;52.524;17.580;2022-09-12T01:12:28;8.25;;;4.80;;
50739;SDS011;36704;52.524;17.580;2022-09-12T01:15:16;8.93;;;3.60;;
50739;SDS011;36704;52.524;17.580;2022-09-12T01:18:09;6.22;;;3.75;;
50739;SDS011;36704;52.524;17.580;2022-09-12T01:24:36;9.07;;;4.45;;
50739;SDS011;36704;52.524;17.580;2022-09-12T01:34:07;7.72;;;4.28;;
50739;SDS011;36704;52.524;17.580;2022-09-12T01:43:27;6.55;;;4.13;;
50739;SDS011;36704;52.524;17.580;2022-09-12T01:46:38;6.40;;;3.80;;
50739;SDS011;36704;52.524;17.580;2022-09-12T01:49:32;6.47;;;4.55;;
50739;SDS011;36704;52.524;17.580;2022-09-12T01:52:34;6.50;;;4.10;;
50739;SDS011;36704;52.524;17.580;2022-09-12T01:55:28;4.93;;;3.78;;
50739;SDS011;36704;52.524;17.580;2022-09-12T01:58:21;6.40;;;4.13;;
50739;SDS011;36704;52.524;17.580;2022-09-12T02:01:12;5.30;;;4.40;;
50739;SDS011;36704;52.524;17.580;2022-09-12T02:04:12;6.53;;;4.70;;
50739;SDS011;36704;52.524;17.580;2022-09-12T02:07:13;5.78;;;4.18;;
50739;SDS011;36704;52.524;17.580;2022-09-12T02:10:07;6.95;;;4.18;;
50739;SDS011;36704;52.524;17.580;2022-09-12T02:12:57;8.05;;;4.10;;
50739;SDS011;36704;52.524;17.580;2022-09-12T02:15:47;7.90;;;4.13;;
50739;SDS011;36704;52.524;17.580;2022-09-12T02:18:40;5.53;;;4.00;;
50739;SDS011;36704;52.524;17.580;2022-09-12T02:21:30;5.60;;;4.22;;
50739;SDS011;36704;52.524;17.580;2022-09-12T02:24:17;6.35;;;4.10;;
50739;SDS011;36704;52.524;17.580;2022-09-12T02:27:13;5.35;;;3.70;;
50739;SDS011;36704;52.524;17.580;2022-09-12T02:30:00;4.97;;;3.35;;
50739;SDS011;36704;52.524;17.580;2022-09-12T02:35:45;6.65;;;4.07;;
50739;SDS011;36704;52.524;17.580;2022-09-12T02:38:44;5.65;;;4.05;;
50739;SDS011;36704;52.524;17.580;2022-09-12T02:41:31;7.60;;;4.20;;
50739;SDS011;36704;52.524;17.580;2022-09-12T02:44:19;7.43;;;3.83;;
50739;SDS011;36704;52.524;17.580;2022-09-12T02:47:09;8.82;;;4.22;;
50739;SDS011;36704;52.524;17.580;2022-09-12T02:49:58;6.05;;;4.18;;
50739;SDS011;36704;52.524;17.580;2022-09-12T02:52:44;8.73;;;4.75;;
50739;SDS011;36704;52.524;17.580;2022-09-12T02:55:31;6.93;;;3.70;;
50739;SDS011;36704;52.524;17.580;2022-09-12T02:58:20;6.55;;;4.20;;
50739;SDS011;36704;52.524;17.580;2022-09-12T03:10:02;9.18;;;4.43;;
50739;SDS011;36704;52.524;17.580;2022-09-12T03:13:07;6.22;;;3.90;;
50739;SDS011;36704;52.524;17.580;2022-09-12T03:20:13;5.22;;;3.95;;
50739;SDS011;36704;52.524;17.580;2022-09-12T03:22:44;8.82;;;4.18;;
50739;SDS011;36704;52.524;17.580;2022-09-12T03:25:42;6.85;;;4.68;;
50739;SDS011;36704;52.524;17.580;2022-09-12T03:28:33;8.90;;;4.97;;
50739;SDS011;36704;52.524;17.580;2022-09-12T03:31:20;7.15;;;4.00;;
50739;SDS011;36704;52.524;17.580;2022-09-12T03:34:06;5.00;;;4.03;;
50739;SDS011;36704;52.524;17.580;2022-09-12T03:36:57;4.82;;;3.70;;
50739;SDS011;36704;52.524;17.580;2022-09-12T03:39:43;7.50;;;4.45;;
50739;SDS011;36704;52.524;17.580;2022-09-12T03:42:29;6.40;;;3.88;;
50739;SDS011;36704;52.524;17.580;2022-09-12T03:45:14;6.90;;;3.83;;
50739;SDS011;36704;52.524;17.580;2022-09-12T03:48:01;5.93;;;4.00;;
50739;SDS011;36704;52.524;17.580;2022-09-12T03:50:48;7.85;;;4.20;;
50739;SDS011;36704;52.524;17.580;2022-09-12T03:53:35;6.88;;;4.00;;
50739;SDS011;36704;52.524;17.580;2022-09-12T03:56:21;8.65;;;4.65;;
50739;SDS011;36704;52.524;17.580;2022-09-12T03:59:07;5.60;;;4.53;;
50739;SDS011;36704;52.524;17.580;2022-09-12T04:01:53;6.78;;;3.97;;
50739;SDS011;36704;52.524;17.580;2022-09-12T04:04:40;6.93;;;3.80;;
50739;SDS011;36704;52.524;17.580;2022-09-12T04:07:28;5.97;;;4.05;;
50739;SDS011;36704;52.524;17.580;2022-09-12T04:10:14;7.10;;;4.00;;
50739;SDS011;36704;52.524;17.580;2022-09-12T04:13:00;8.88;;;3.92;;
50739;SDS011;36704;52.524;17.580;2022-09-12T04:15:54;6.03;;;3.65;;
50739;SDS011;36704;52.524;17.580;2022-09-12T04:18:44;6.20;;;3.63;;
50739;SDS011;36704;52.524;17.580;2022-09-12T04:21:31;6.80;;;4.00;;
50739;SDS011;36704;52.524;17.580;2022-09-12T04:24:17;6.80;;;4.50;;
50739;SDS011;36704;52.524;17.580;2022-09-12T04:27:05;8.48;;;4.50;;
50739;SDS011;36704;52.524;17.580;2022-09-12T04:29:53;5.65;;;3.63;;
50739;SDS011;36704;52.524;17.580;2022-09-12T04:32:39;6.45;;;3.88;;
50739;SDS011;36704;52.524;17.580;2022-09-12T04:35:25;8.73;;;4.70;;
50739;SDS011;36704;52.524;17.580;2022-09-12T04:38:12;8.20;;;3.65;;
50739;SDS011;36704;52.524;17.580;2022-09-12T04:40:58;6.18;;;3.97;;
50739;SDS011;36704;52.524;17.580;2022-09-12T04:43:45;9.43;;;3.92;;
50739;SDS011;36704;52.524;17.580;2022-09-12T04:46:33;8.75;;;4.50;;
50739;SDS011;36704;52.524;17.580;2022-09-12T04:49:20;6.22;;;4.05;;
50739;SDS011;36704;52.524;17.580;2022-09-12T04:52:06;7.18;;;3.92;;
50739;SDS011;36704;52.524;17.580;2022-09-12T04:54:52;7.45;;;4.80;;
50739;SDS011;36704;52.524;17.580;2022-09-12T04:57:38;8.77;;;4.50;;
50739;SDS011;36704;52.524;17.580;2022-09-12T05:00:24;8.23;;;5.07;;
50739;SDS011;36704;52.524;17.580;2022-09-12T05:03:09;8.85;;;4.13;;
50739;SDS011;36704;52.524;17.580;2022-09-12T05:05:55;7.72;;;4.60;;
50739;SDS011;36704;52.524;17.580;2022-09-12T05:08:42;7.30;;;4.30;;
50739;SDS011;36704;52.524;17.580;2022-09-12T05:11:30;7.78;;;4.57;;
50739;SDS011;36704;52.524;17.580;2022-09-12T05:14:37;5.45;;;3.95;;
50739;SDS011;36704;52.524;17.580;2022-09-12T05:17:24;7.25;;;4.20;;
50739;SDS011;36704;52.524;17.580;2022-09-12T05:20:09;7.35;;;4.55;;
50739;SDS011;36704;52.524;17.580;2022-09-12T05:22:57;7.47;;;4.43;;
50739;SDS011;36704;52.524;17.580;2022-09-12T05:25:50;6.53;;;4.72;;
50739;SDS011;36704;52.524;17.580;2022-09-12T05:28:37;9.55;;;5.10;;
50739;SDS011;36704;52.524;17.580;2022-09-12T05:31:25;13.02;;;5.03;;
50739;SDS011;36704;52.524;17.580;2022-09-12T05:34:15;6.05;;;4.68;;
50739;SDS011;36704;52.524;17.580;2022-09-12T05:37:01;6.53;;;4.55;;
50739;SDS011;36704;52.524;17.580;2022-09-12T05:39:47;6.55;;;4.55;;
50739;SDS011;36704;52.524;17.580;2022-09-12T05:42:32;9.23;;;5.97;;
50739;SDS011;36704;52.524;17.580;2022-09-12T05:45:19;10.10;;;5.03;;
50739;SDS011;36704;52.524;17.580;2022-09-12T05:48:05;8.05;;;4.65;;
50739;SDS011;36704;52.524;17.580;2022-09-12T05:50:51;6.55;;;4.70;;
50739;SDS011;36704;52.524;17.580;2022-09-12T05:53:37;8.93;;;5.43;;
50739;SDS011;36704;52.524;17.580;2022-09-12T05:56:26;6.45;;;4.30;;
50739;SDS011;36704;52.524;17.580;2022-09-12T05:59:20;7.10;;;5.05;;
50739;SDS011;36704;52.524;17.580;2022-09-12T06:02:07;7.55;;;5.38;;
50739;SDS011;36704;52.524;17.580;2022-09-12T06:04:54;7.65;;;5.30;;
50739;SDS011;36704;52.524;17.580;2022-09-12T06:07:40;6.22;;;4.80;;
50739;SDS011;36704;52.524;17.580;2022-09-12T06:10:25;7.88;;;5.50;;
50739;SDS011;36704;52.524;17.580;2022-09-12T06:13:12;6.40;;;4.55;;
50739;SDS011;36704;52.524;17.580;2022-09-12T06:16:08;8.18;;;4.95;;
50739;SDS011;36704;52.524;17.580;2022-09-12T06:18:57;9.25;;;4.28;;
50739;SDS011;36704;52.524;17.580;2022-09-12T06:22:06;8.07;;;4.65;;
50739;SDS011;36704;52.524;17.580;2022-09-12T06:24:51;6.47;;;4.72;;
50739;SDS011;36704;52.524;17.580;2022-09-12T06:30:30;6.90;;;4.10;;
50739;SDS011;36704;52.524;17.580;2022-09-12T06:33:17;6.38;;;4.45;;
50739;SDS011;36704;52.524;17.580;2022-09-12T06:36:04;5.00;;;3.70;;
50739;SDS011;36704;52.524;17.580;2022-09-12T06:39:03;4.97;;;3.50;;
50739;SDS011;36704;52.524;17.580;2022-09-12T06:41:52;7.63;;;4.20;;
50739;SDS011;36704;52.524;17.580;2022-09-12T06:44:50;9.23;;;4.07;;
50739;SDS011;36704;52.524;17.580;2022-09-12T06:47:36;6.32;;;4.07;;
50739;SDS011;36704;52.524;17.580;2022-09-12T06:50:21;8.00;;;4.28;;
50739;SDS011;36704;52.524;17.580;2022-09-12T06:53:08;7.63;;;4.50;;
50739;SDS011;36704;52.524;17.580;2022-09-12T06:55:57;7.78;;;4.45;;
50739;SDS011;36704;52.524;17.580;2022-09-12T06:58:46;8.52;;;5.00;;
50739;SDS011;36704;52.524;17.580;2022-09-12T07:01:34;7.63;;;3.75;;
50739;SDS011;36704;52.524;17.580;2022-09-12T07:04:20;13.70;;;5.30;;
50739;SDS011;36704;52.524;17.580;2022-09-12T07:07:06;8.75;;;5.00;;
50739;SDS011;36704;52.524;17.580;2022-09-12T07:09:52;4.60;;;3.80;;
50739;SDS011;36704;52.524;17.580;2022-09-12T07:12:38;6.30;;;4.82;;
50739;SDS011;36704;52.524;17.580;2022-09-12T07:15:24;6.95;;;4.47;;
50739;SDS011;36704;52.524;17.580;2022-09-12T07:18:09;7.95;;;4.50;;
50739;SDS011;36704;52.524;17.580;2022-09-12T07:20:55;6.60;;;4.15;;
50739;SDS011;36704;52.524;17.580;2022-09-12T07:23:44;8.73;;;3.92;;
50739;SDS011;36704;52.524;17.580;2022-09-12T07:26:30;4.20;;;3.35;;
50739;SDS011;36704;52.524;17.580;2022-09-12T07:29:17;4.22;;;3.60;;
50739;SDS011;36704;52.524;17.580;2022-09-12T07:32:21;7.03;;;4.30;;
50739;SDS011;36704;52.524;17.580;2022-09-12T07:35:07;6.38;;;4.10;;
50739;SDS011;36704;52.524;17.580;2022-09-12T07:37:53;6.45;;;4.05;;
50739;SDS011;36704;52.524;17.580;2022-09-12T07:40:39;5.93;;;3.70;;
50739;SDS011;36704;52.524;17.580;2022-09-12T07:43:25;8.48;;;4.43;;
50739;SDS011;36704;52.524;17.580;2022-09-12T07:46:11;6.03;;;4.60;;
50739;SDS011;36704;52.524;17.580;2022-09-12T07:48:58;9.18;;;4.20;;
50739;SDS011;36704;52.524;17.580;2022-09-12T07:51:45;5.88;;;3.95;;
50739;SDS011;36704;52.524;17.580;2022-09-12T07:54:31;9.35;;;4.50;;
50739;SDS011;36704;52.524;17.580;2022-09-12T07:57:17;6.82;;;4.15;;
50739;SDS011;36704;52.524;17.580;2022-09-12T08:00:04;6.65;;;3.40;;
50739;SDS011;36704;52.524;17.580;2022-09-12T08:02:56;6.82;;;3.90;;
50739;SDS011;36704;52.524;17.580;2022-09-12T08:05:42;4.40;;;3.35;;
50739;SDS011;36704;52.524;17.580;2022-09-12T08:08:28;4.68;;;3.10;;
50739;SDS011;36704;52.524;17.580;2022-09-12T08:11:15;6.82;;;3.55;;
50739;SDS011;36704;52.524;17.580;2022-09-12T08:14:02;4.95;;;3.78;;
50739;SDS011;36704;52.524;17.580;2022-09-12T08:16:50;5.88;;;4.07;;
50739;SDS011;36704;52.524;17.580;2022-09-12T08:19:35;6.80;;;3.97;;
50739;SDS011;36704;52.524;17.580;2022-09-12T08:22:23;4.15;;;3.20;;
50739;SDS011;36704;52.524;17.580;2022-09-12T08:25:10;5.30;;;3.42;;
50739;SDS011;36704;52.524;17.580;2022-09-12T08:27:56;5.85;;;3.80;;
50739;SDS011;36704;52.524;17.580;2022-09-12T08:30:41;8.70;;;3.85;;
50739;SDS011;36704;52.524;17.580;2022-09-12T08:33:28;8.18;;;3.55;;
50739;SDS011;36704;52.524;17.580;2022-09-12T08:36:18;6.13;;;3.40;;
50739;SDS011;36704;52.524;17.580;2022-09-12T08:39:06;6.45;;;3.42;;
50739;SDS011;36704;52.524;17.580;2022-09-12T08:42:01;5.22;;;3.17;;
50739;SDS011;36704;52.524;17.580;2022-09-12T08:45:10;4.30;;;2.90;;
50739;SDS011;36704;52.524;17.580;2022-09-12T08:48:02;4.55;;;3.20;;
50739;SDS011;36704;52.524;17.580;2022-09-12T08:50:50;7.00;;;2.78;;
50739;SDS011;36704;52.524;17.580;2022-09-12T08:53:35;6.28;;;2.75;;
50739;SDS011;36704;52.524;17.580;2022-09-12T08:56:22;5.40;;;2.10;;
50739;SDS011;36704;52.524;17.580;2022-09-12T08:59:15;4.00;;;2.67;;
50739;SDS011;36704;52.524;17.580;2022-09-12T09:02:01;4.05;;;2.38;;
50739;SDS011;36704;52.524;17.580;2022-09-12T09:04:49;3.67;;;2.30;;
50739;SDS011;36704;52.524;17.580;2022-09-12T09:07:59;15.93;;;3.28;;
50739;SDS011;36704;52.524;17.580;2022-09-12T09:17:45;2.20;;;1.90;;
50739;SDS011;36704;52.524;17.580;2022-09-12T09:20:42;2.60;;;2.15;;
50739;SDS011;36704;52.524;17.580;2022-09-12T09:26:48;5.57;;;2.47;;
50739;SDS011;36704;52.524;17.580;2022-09-12T09:29:42;2.47;;;1.85;;
50739;SDS011;36704;52.524;17.580;2022-09-12T09:32:35;3.08;;;2.03;;
50739;SDS011;36704;52.524;17.580;2022-09-12T09:35:42;4.32;;;2.40;;
50739;SDS011;36704;52.524;17.580;2022-09-12T09:38:33;4.78;;;2.00;;
50739;SDS011;36704;52.524;17.580;2022-09-12T09:41:39;2.38;;;1.92;;
50739;SDS011;36704;52.524;17.580;2022-09-12T09:44:30;3.45;;;2.17;;
50739;SDS011;36704;52.524;17.580;2022-09-12T09:47:16;6.60;;;2.78;;
50739;SDS011;36704;52.524;17.580;2022-09-12T09:50:02;5.40;;;2.38;;
50739;SDS011;36704;52.524;17.580;2022-09-12T09:52:49;4.88;;;2.10;;
50739;SDS011;36704;52.524;17.580;2022-09-12T09:55:40;4.00;;;2.45;;
50739;SDS011;36704;52.524;17.580;2022-09-12T09:58:29;5.95;;;2.20;;
50739;SDS011;36704;52.524;17.580;2022-09-12T10:01:16;6.43;;;2.58;;
50739;SDS011;36704;52.524;17.580;2022-09-12T10:04:02;4.00;;;1.80;;
50739;SDS011;36704;52.524;17.580;2022-09-12T10:06:54;5.50;;;2.25;;
50739;SDS011;36704;52.524;17.580;2022-09-12T10:09:41;4.13;;;2.25;;
50739;SDS011;36704;52.524;17.580;2022-09-12T10:12:27;2.65;;;2.20;;
50739;SDS011;36704;52.524;17.580;2022-09-12T10:15:25;3.35;;;2.38;;
50739;SDS011;36704;52.524;17.580;2022-09-12T10:18:11;5.63;;;2.60;;
50739;SDS011;36704;52.524;17.580;2022-09-12T10:21:40;6.70;;;2.17;;
50739;SDS011;36704;52.524;17.580;2022-09-12T10:24:38;2.70;;;2.08;;
50739;SDS011;36704;52.524;17.580;2022-09-12T10:27:31;2.55;;;1.63;;
50739;SDS011;36704;52.524;17.580;2022-09-12T10:30:18;5.28;;;2.63;;
50739;SDS011;36704;52.524;17.580;2022-09-12T10:33:06;2.80;;;1.75;;
50739;SDS011;36704;52.524;17.580;2022-09-12T10:36:02;3.15;;;1.85;;
50739;SDS011;36704;52.524;17.580;2022-09-12T10:38:51;2.28;;;1.63;;
50739;SDS011;36704;52.524;17.580;2022-09-12T10:41:38;2.25;;;1.55;;
50739;SDS011;36704;52.524;17.580;2022-09-12T10:44:27;4.38;;;1.98;;
50739;SDS011;36704;52.524;17.580;2022-09-12T10:47:19;5.47;;;1.88;;
50739;SDS011;36704;52.524;17.580;2022-09-12T10:50:20;4.05;;;1.70;;
50739;SDS011;36704;52.524;17.580;2022-09-12T10:53:24;3.58;;;1.70;;
50739;SDS011;36704;52.524;17.580;2022-09-12T10:56:22;3.53;;;2.00;;
50739;SDS011;36704;52.524;17.580;2022-09-12T10:59:20;4.32;;;1.77;;
50739;SDS011;36704;52.524;17.580;2022-09-12T11:08:47;2.05;;;1.60;;
50739;SDS011;36704;52.524;17.580;2022-09-12T11:11:43;3.30;;;1.60;;
50739;SDS011;36704;52.524;17.580;2022-09-12T11:23:42;3.25;;;1.60;;
50739;SDS011;36704;52.524;17.580;2022-09-12T11:27:23;2.67;;;1.60;;
50739;SDS011;36704;52.524;17.580;2022-09-12T11:29:44;3.15;;;1.67;;
50739;SDS011;36704;52.524;17.580;2022-09-12T11:32:37;1.77;;;1.60;;
50739;SDS011;36704;52.524;17.580;2022-09-12T11:35:32;3.72;;;1.73;;
50739;SDS011;36704;52.524;17.580;2022-09-12T11:41:24;3.30;;;1.65;;
50739;SDS011;36704;52.524;17.580;2022-09-12T11:47:09;3.47;;;1.92;;
50739;SDS011;36704;52.524;17.580;2022-09-12T11:49:57;3.85;;;1.92;;
50739;SDS011;36704;52.524;17.580;2022-09-12T11:52:45;2.67;;;1.60;;
50739;SDS011;36704;52.524;17.580;2022-09-12T11:56:32;1.67;;;1.58;;
50739;SDS011;36704;52.524;17.580;2022-09-12T11:58:54;3.05;;;1.80;;
50739;SDS011;36704;52.524;17.580;2022-09-12T12:01:44;5.57;;;2.35;;
50739;SDS011;36704;52.524;17.580;2022-09-12T12:04:36;1.60;;;1.42;;
50739;SDS011;36704;52.524;17.580;2022-09-12T12:07:26;3.58;;;1.20;;
50739;SDS011;36704;52.524;17.580;2022-09-12T12:19:09;3.30;;;1.30;;
50739;SDS011;36704;52.524;17.580;2022-09-12T12:22:05;2.97;;;1.42;;
50739;SDS011;36704;52.524;17.580;2022-09-12T12:27:56;2.35;;;1.50;;
50739;SDS011;36704;52.524;17.580;2022-09-12T12:36:36;3.03;;;1.48;;
50739;SDS011;36704;52.524;17.580;2022-09-12T12:48:14;3.95;;;1.25;;
50739;SDS011;36704;52.524;17.580;2022-09-12T12:54:30;3.03;;;1.33;;
50739;SDS011;36704;52.524;17.580;2022-09-12T12:57:23;2.05;;;1.30;;
50739;SDS011;36704;52.524;17.580;2022-09-12T13:03:18;2.35;;;1.58;;
50739;SDS011;36704;52.524;17.580;2022-09-12T13:07:16;5.20;;;2.40;;
50739;SDS011;36704;52.524;17.580;2022-09-12T13:09:31;4.05;;;1.55;;
50739;SDS011;36704;52.524;17.580;2022-09-12T13:12:30;2.45;;;1.40;;
50739;SDS011;36704;52.524;17.580;2022-09-12T13:15:40;7.20;;;3.38;;
50739;SDS011;36704;52.524;17.580;2022-09-12T13:21:31;1.33;;;1.20;;
50739;SDS011;36704;52.524;17.580;2022-09-12T13:24:18;3.58;;;1.40;;
50739;SDS011;36704;52.524;17.580;2022-09-12T13:27:17;6.18;;;1.55;;
50739;SDS011;36704;52.524;17.580;2022-09-12T13:30:08;2.60;;;1.70;;
50739;SDS011;36704;52.524;17.580;2022-09-12T13:33:06;2.33;;;1.50;;
50739;SDS011;36704;52.524;17.580;2022-09-12T13:36:02;2.80;;;1.60;;
50739;SDS011;36704;52.524;17.580;2022-09-12T13:45:19;3.47;;;1.73;;
50739;SDS011;36704;52.524;17.580;2022-09-12T13:48:10;1.75;;;1.52;;
50739;SDS011;36704;52.524;17.580;2022-09-12T13:50:59;4.97;;;1.95;;
50739;SDS011;36704;52.524;17.580;2022-09-12T13:53:45;8.35;;;1.52;;
50739;SDS011;36704;52.524;17.580;2022-09-12T13:56:32;4.63;;;1.55;;
50739;SDS011;36704;52.524;17.580;2022-09-12T13:59:18;3.55;;;1.60;;
50739;SDS011;36704;52.524;17.580;2022-09-12T14:02:20;1.30;;;1.20;;
50739;SDS011;36704;52.524;17.580;2022-09-12T14:05:12;2.35;;;1.30;;
50739;SDS011;36704;52.524;17.580;2022-09-12T14:08:06;2.53;;;1.40;;
50739;SDS011;36704;52.524;17.580;2022-09-12T14:10:53;1.33;;;1.23;;
50739;SDS011;36704;52.524;17.580;2022-09-12T14:13:39;4.80;;;1.65;;
50739;SDS011;36704;52.524;17.580;2022-09-12T14:16:25;2.40;;;1.55;;
50739;SDS011;36704;52.524;17.580;2022-09-12T14:19:13;3.47;;;1.33;;
50739;SDS011;36704;52.524;17.580;2022-09-12T14:22:01;1.58;;;1.20;;
50739;SDS011;36704;52.524;17.580;2022-09-12T14:24:47;2.47;;;1.42;;
50739;SDS011;36704;52.524;17.580;2022-09-12T14:27:41;2.60;;;1.23;;
50739;SDS011;36704;52.524;17.580;2022-09-12T14:30:35;6.28;;;1.40;;
50739;SDS011;36704;52.524;17.580;2022-09-12T14:33:25;1.52;;;1.30;;
50739;SDS011;36704;52.524;17.580;2022-09-12T14:36:16;1.50;;;1.25;;
50739;SDS011;36704;52.524;17.580;2022-09-12T14:39:06;1.85;;;1.50;;
50739;SDS011;36704;52.524;17.580;2022-09-12T14:42:20;3.67;;;1.70;;
50739;SDS011;36704;52.524;17.580;2022-09-12T14:45:14;2.13;;;1.45;;
50739;SDS011;36704;52.524;17.580;2022-09-12T14:48:13;2.65;;;1.50;;
50739;SDS011;36704;52.524;17.580;2022-09-12T14:51:02;2.22;;;1.55;;
50739;SDS011;36704;52.524;17.580;2022-09-12T14:53:50;1.83;;;1.60;;
50739;SDS011;36704;52.524;17.580;2022-09-12T14:56:37;3.33;;;1.60;;
50739;SDS011;36704;52.524;17.580;2022-09-12T15:07:57;2.83;;;1.95;;
50739;SDS011;36704;52.524;17.580;2022-09-12T15:10:46;2.05;;;1.83;;
50739;SDS011;36704;52.524;17.580;2022-09-12T15:13:37;5.32;;;1.80;;
50739;SDS011;36704;52.524;17.580;2022-09-12T15:16:25;3.17;;;1.90;;
50739;SDS011;36704;52.524;17.580;2022-09-12T15:19:10;3.33;;;2.00;;
50739;SDS011;36704;52.524;17.580;2022-09-12T15:21:56;2.60;;;1.85;;
50739;SDS011;36704;52.524;17.580;2022-09-12T15:24:42;2.83;;;1.60;;
50739;SDS011;36704;52.524;17.580;2022-09-12T15:27:28;2.03;;;1.83;;
50739;SDS011;36704;52.524;17.580;2022-09-12T15:30:14;3.63;;;1.65;;
50739;SDS011;36704;52.524;17.580;2022-09-12T15:33:00;3.17;;;1.85;;
50739;SDS011;36704;52.524;17.580;2022-09-12T15:35:46;2.80;;;1.60;;
50739;SDS011;36704;52.524;17.580;2022-09-12T15:38:32;1.80;;;1.55;;
50739;SDS011;36704;52.524;17.580;2022-09-12T15:41:29;2.53;;;1.90;;
50739;SDS011;36704;52.524;17.580;2022-09-12T15:44:18;2.83;;;1.88;;
50739;SDS011;36704;52.524;17.580;2022-09-12T15:47:04;4.95;;;1.67;;
50739;SDS011;36704;52.524;17.580;2022-09-12T15:49:50;4.38;;;2.05;;
50739;SDS011;36704;52.524;17.580;2022-09-12T15:52:36;3.25;;;1.70;;
50739;SDS011;36704;52.524;17.580;2022-09-12T15:55:24;4.95;;;1.95;;
50739;SDS011;36704;52.524;17.580;2022-09-12T15:58:12;2.63;;;1.42;;
50739;SDS011;36704;52.524;17.580;2022-09-12T16:00:58;1.95;;;1.45;;
50739;SDS011;36704;52.524;17.580;2022-09-12T16:03:45;4.82;;;1.95;;
50739;SDS011;36704;52.524;17.580;2022-09-12T16:06:32;1.95;;;1.60;;
50739;SDS011;36704;52.524;17.580;2022-09-12T16:09:22;2.15;;;1.42;;
50739;SDS011;36704;52.524;17.580;2022-09-12T16:12:09;3.33;;;1.67;;
50739;SDS011;36704;52.524;17.580;2022-09-12T16:14:55;3.45;;;1.42;;
50739;SDS011;36704;52.524;17.580;2022-09-12T16:17:42;2.80;;;1.33;;
50739;SDS011;36704;52.524;17.580;2022-09-12T16:20:28;1.80;;;1.50;;
50739;SDS011;36704;52.524;17.580;2022-09-12T16:23:14;2.63;;;1.65;;
50739;SDS011;36704;52.524;17.580;2022-09-12T16:26:01;2.83;;;1.73;;
50739;SDS011;36704;52.524;17.580;2022-09-12T16:28:58;2.25;;;1.80;;
50739;SDS011;36704;52.524;17.580;2022-09-12T16:31:44;2.08;;;1.70;;
50739;SDS011;36704;52.524;17.580;2022-09-12T16:34:30;2.17;;;1.52;;
50739;SDS011;36704;52.524;17.580;2022-09-12T16:37:16;2.88;;;2.03;;
50739;SDS011;36704;52.524;17.580;2022-09-12T16:40:03;3.22;;;2.10;;
50739;SDS011;36704;52.524;17.580;2022-09-12T16:42:49;3.20;;;2.20;;
50739;SDS011;36704;52.524;17.580;2022-09-12T16:45:35;2.92;;;2.25;;
50739;SDS011;36704;52.524;17.580;2022-09-12T16:48:21;3.42;;;2.30;;
50739;SDS011;36704;52.524;17.580;2022-09-12T16:51:06;5.30;;;3.75;;
50739;SDS011;36704;52.524;17.580;2022-09-12T16:53:53;3.67;;;2.92;;
50739;SDS011;36704;52.524;17.580;2022-09-12T16:56:40;4.53;;;2.45;;
50739;SDS011;36704;52.524;17.580;2022-09-12T16:59:26;5.18;;;3.03;;
50739;SDS011;36704;52.524;17.580;2022-09-12T17:02:13;8.35;;;4.65;;
50739;SDS011;36704;52.524;17.580;2022-09-12T17:04:59;8.93;;;6.03;;
50739;SDS011;36704;52.524;17.580;2022-09-12T17:07:47;11.98;;;5.70;;
50739;SDS011;36704;52.524;17.580;2022-09-12T17:10:33;8.68;;;5.10;;
50739;SDS011;36704;52.524;17.580;2022-09-12T17:13:19;10.05;;;5.93;;
50739;SDS011;36704;52.524;17.580;2022-09-12T17:16:06;11.40;;;5.80;;
50739;SDS011;36704;52.524;17.580;2022-09-12T17:18:56;8.50;;;5.10;;
50739;SDS011;36704;52.524;17.580;2022-09-12T17:21:43;11.52;;;5.22;;
50739;SDS011;36704;52.524;17.580;2022-09-12T17:24:33;11.85;;;5.57;;
50739;SDS011;36704;52.524;17.580;2022-09-12T17:27:19;9.90;;;6.07;;
50739;SDS011;36704;52.524;17.580;2022-09-12T17:30:05;8.65;;;5.05;;
50739;SDS011;36704;52.524;17.580;2022-09-12T17:32:51;10.98;;;5.80;;
50739;SDS011;36704;52.524;17.580;2022-09-12T17:35:38;11.70;;;5.75;;
50739;SDS011;36704;52.524;17.580;2022-09-12T17:38:23;10.43;;;5.50;;
50739;SDS011;36704;52.524;17.580;2022-09-12T17:41:13;9.85;;;5.82;;
50739;SDS011;36704;52.524;17.580;2022-09-12T17:44:00;11.27;;;5.97;;
50739;SDS011;36704;52.524;17.580;2022-09-12T17:46:48;10.13;;;5.25;;
50739;SDS011;36704;52.524;17.580;2022-09-12T17:49:34;7.90;;;4.97;;
50739;SDS011;36704;52.524;17.580;2022-09-12T17:52:22;11.82;;;6.03;;
50739;SDS011;36704;52.524;17.580;2022-09-12T17:55:07;11.93;;;5.00;;
50739;SDS011;36704;52.524;17.580;2022-09-12T17:57:54;8.57;;;4.82;;
50739;SDS011;36704;52.524;17.580;2022-09-12T18:00:40;7.32;;;4.22;;
50739;SDS011;36704;52.524;17.580;2022-09-12T18:03:45;7.75;;;4.70;;
50739;SDS011;36704;52.524;17.580;2022-09-12T18:06:31;7.10;;;4.60;;
50739;SDS011;36704;52.524;17.580;2022-09-12T18:09:18;7.95;;;4.38;;
50739;SDS011;36704;52.524;17.580;2022-09-12T18:12:09;5.43;;;3.88;;
50739;SDS011;36704;52.524;17.580;2022-09-12T18:14:55;7.70;;;4.70;;
50739;SDS011;36704;52.524;17.580;2022-09-12T18:17:42;9.32;;;4.70;;
50739;SDS011;36704;52.524;17.580;2022-09-12T18:20:28;6.88;;;4.45;;
50739;SDS011;36704;52.524;17.580;2022-09-12T18:23:14;10.70;;;6.20;;
50739;SDS011;36704;52.524;17.580;2022-09-12T18:26:05;8.32;;;5.18;;
50739;SDS011;36704;52.524;17.580;2022-09-12T18:28:52;8.82;;;5.18;;
50739;SDS011;36704;52.524;17.580;2022-09-12T18:31:38;9.10;;;5.18;;
50739;SDS011;36704;52.524;17.580;2022-09-12T18:34:24;8.85;;;5.38;;
50739;SDS011;36704;52.524;17.580;2022-09-12T18:37:11;9.48;;;6.10;;
50739;SDS011;36704;52.524;17.580;2022-09-12T18:39:57;8.25;;;5.22;;
50739;SDS011;36704;52.524;17.580;2022-09-12T18:42:43;9.32;;;5.78;;
50739;SDS011;36704;52.524;17.580;2022-09-12T18:45:28;21.70;;;9.82;;
50739;SDS011;36704;52.524;17.580;2022-09-12T18:48:15;33.97;;;16.92;;
50739;SDS011;36704;52.524;17.580;2022-09-12T18:51:01;21.13;;;11.55;;